TimeEST,TemperatureF,Dew PointF,Humidity,Sea Level PressureIn,VisibilityMPH,Wind Direction,Wind SpeedMPH,Gust SpeedMPH,PrecipitationIn,Events,Conditions,WindDirDegrees,DateUTC
12:53 AM,17.1,12.9,84,30.14,10.0,WNW,5.8,-,N/A,,Clear,300,2013-12-27 05:53:00
1:53 AM,15.1,12.0,88,30.14,10.0,WNW,4.6,-,N/A,,Clear,300,2013-12-27 06:53:00
2:53 AM,17.1,12.9,84,30.15,10.0,WNW,4.6,-,N/A,,Clear,300,2013-12-27 07:53:00
3:53 AM,17.1,12.9,84,30.16,10.0,WNW,5.8,-,N/A,,Scattered Clouds,290,2013-12-27 08:53:00
4:53 AM,19.0,15.1,85,30.16,10.0,Calm,Calm,-,N/A,,Overcast,0,2013-12-27 09:53:00
5:53 AM,16.0,12.9,88,30.16,10.0,SSW,3.5,-,N/A,,Overcast,200,2013-12-27 10:53:00
6:30 AM,18.0,14.0,84,30.15,2.5,Calm,Calm,-,N/A,,Overcast,0,2013-12-27 11:30:00
6:37 AM,18.0,14.0,84,30.16,10.0,Calm,Calm,-,N/A,,Overcast,0,2013-12-27 11:37:00
6:53 AM,19.0,15.1,85,30.17,10.0,Calm,Calm,-,N/A,,Overcast,0,2013-12-27 11:53:00
7:53 AM,19.0,15.1,85,30.19,10.0,West,3.5,-,N/A,,Overcast,270,2013-12-27 12:53:00
8:53 AM,21.0,17.1,85,30.19,10.0,South,3.5,-,N/A,,Mostly Cloudy,170,2013-12-27 13:53:00
9:53 AM,19.0,17.1,92,30.19,6.0,Calm,Calm,-,N/A,,Partly Cloudy,0,2013-12-27 14:53:00
10:53 AM,25.0,19.9,81,30.17,10.0,WNW,4.6,-,N/A,,Scattered Clouds,290,2013-12-27 15:53:00
11:53 AM,27.0,21.9,81,30.15,10.0,WSW,4.6,-,N/A,,Overcast,250,2013-12-27 16:53:00
12:53 PM,27.0,21.9,81,30.13,10.0,SW,6.9,-,N/A,,Overcast,230,2013-12-27 17:53:00
1:53 PM,28.0,24.1,85,30.13,10.0,SW,6.9,-,N/A,,Partly Cloudy,220,2013-12-27 18:53:00
2:53 PM,28.0,23.0,81,30.14,10.0,WSW,6.9,-,N/A,,Scattered Clouds,240,2013-12-27 19:53:00
3:53 PM,27.0,24.1,89,30.13,9.0,Calm,Calm,-,N/A,,Clear,0,2013-12-27 20:53:00
4:53 PM,26.1,23.0,88,30.14,10.0,SSW,3.5,-,N/A,,Overcast,210,2013-12-27 21:53:00
5:53 PM,25.0,21.9,88,30.16,10.0,SW,6.9,-,N/A,,Mostly Cloudy,230,2013-12-27 22:53:00
6:53 PM,24.1,19.9,84,30.17,10.0,WSW,6.9,-,N/A,,Scattered Clouds,240,2013-12-27 23:53:00
7:53 PM,23.0,19.9,88,30.17,10.0,SW,4.6,-,N/A,,Scattered Clouds,220,2013-12-28 00:53:00
8:53 PM,23.0,19.0,85,30.17,10.0,WSW,5.8,-,N/A,,Clear,240,2013-12-28 01:53:00
9:53 PM,23.0,19.0,85,30.18,10.0,WSW,6.9,-,N/A,,Mostly Cloudy,240,2013-12-28 02:53:00
10:53 PM,21.0,18.0,88,30.18,10.0,Calm,Calm,-,N/A,,Mostly Cloudy,0,2013-12-28 03:53:00
11:53 PM,19.9,17.1,89,30.16,10.0,Calm,Calm,-,N/A,,Clear,0,2013-12-28 04:53:00